Latest Weather Observations for Forrest

IDW60801

Issued at 4:32 pm WST Saturday 30 April 2016 (issued every 30 minutes, with the page automatically refreshed every 10 minutes)

About weather observations | Map of weather stations | Latest weather observations for WA | Other Formats
Station Details ID: 011052 Name: FORREST Lat: -30.85 Lon: 128.11 Height: 159.0 m
Data from the previous 72 hours. | See also: Recent months at Forrest
Date/Time
WST
Temp
°C
App
Temp
°C
Dew
Point
Rel
Hum
%
Delta-T
°C
Wind Press
QNH
hPa
Press
MSL
hPa
Rain
since 9 am
mm
Dir
 
Spd
km/h
Gust
km/h
Spd
kts
Gust
kts
30/04:30pm 19.3 12.0 2.6 33 7.8 WSW 30 37 16 20 1016.1 - 0.0
30/04:00pm 20.0 12.5 3.3 33 7.9 WSW 32 46 17 25 1015.7 - 0.0
30/03:30pm 20.5 13.1 4.9 36 7.7 WSW 33 48 18 26 1015.5 - 0.0
30/03:00pm 20.2 11.8 5.8 39 7.2 SW 39 50 21 27 1015.0 1014.6 0.0
30/02:30pm 20.4 12.1 6.0 39 7.2 WSW 39 52 21 28 1015.0 - 0.0
30/02:00pm 20.6 12.0 6.5 40 7.2 WSW 41 54 22 29 1014.8 - 0.0
30/01:30pm 21.3 13.3 7.5 41 7.2 WSW 39 56 21 30 1014.1 - 0.0
30/01:00pm 20.9 13.5 8.5 45 6.6 WSW 37 56 20 30 1013.9 - 0.0
30/12:30pm 20.3 12.0 9.2 49 5.9 WSW 43 56 23 30 1013.6 - 0.0
30/12:00pm 21.9 14.0 7.7 40 7.4 WSW 39 52 21 28 1013.5 1013.1 0.0
30/11:30am 22.2 13.0 6.4 36 8.1 W 44 61 24 33 1013.4 - 0.0
30/11:01am 22.6 12.9 6.0 34 8.5 W 46 65 25 35 1013.7 - 0.0
30/11:00am 22.7 13.0 6.0 34 8.5 W 46 61 25 33 1013.7 - 0.0
30/10:39am 22.7 14.2 6.9 36 8.2 W 41 59 22 32 1013.7 - 0.0
30/10:30am 22.5 13.5 6.3 35 8.3 W 43 57 23 31 1013.7 - 0.0
30/10:00am 21.8 13.2 6.5 37 7.8 W 41 52 22 28 1013.8 - 0.0
30/09:30am 21.1 13.2 7.7 42 7.0 W 39 50 21 27 1013.7 - 0.0
30/09:00am 21.3 14.3 6.8 39 7.4 WNW 33 44 18 24 1013.5 1013.1 0.0
30/08:30am 20.2 14.5 6.9 42 6.8 WNW 26 33 14 18 1013.4 - 0.0
30/08:00am 18.9 14.4 7.0 46 6.0 NW 20 28 11 15 1013.1 - 0.0
30/07:30am 15.8 11.8 6.8 55 4.5 NNW 17 20 9 11 1012.9 - 0.0
30/07:00am 13.5 9.3 5.9 60 3.6 NNW 17 20 9 11 1012.7 - 0.0
30/06:30am 11.9 7.7 5.5 65 3.0 NW 17 19 9 10 1012.7 - 0.0
30/06:00am 11.3 7.4 5.4 67 2.7 WNW 15 17 8 9 1012.5 1012.1 0.0
30/05:30am 10.6 5.8 4.9 68 2.6 NNW 19 20 10 11 1012.3 - 0.0
30/05:00am 10.3 5.9 4.9 69 2.5 NNW 17 19 9 10 1012.3 - 0.0
30/04:30am 9.7 5.7 4.7 71 2.3 NW 15 17 8 9 1012.5 - 0.0
30/04:00am 10.0 5.6 4.6 69 2.4 NW 17 17 9 9 1012.2 - 0.0
30/03:30am 10.3 5.9 4.9 69 2.5 WNW 17 17 9 9 1012.0 - 0.0
30/03:00am 10.5 6.9 4.9 68 2.6 WNW 13 15 7 8 1011.9 1011.5 0.0
30/02:30am 11.1 7.1 4.8 65 2.9 WNW 15 17 8 9 1011.9 - 0.0
30/02:00am 11.6 7.2 5.0 64 3.0 WNW 17 19 9 10 1012.1 - 0.0
30/01:30am 12.0 8.1 5.2 63 3.2 NW 15 19 8 10 1012.3 - 0.0
30/01:00am 12.1 8.1 5.0 62 3.3 NW 15 17 8 9 1012.2 - 0.0
30/12:30am 13.2 8.9 5.4 59 3.7 WNW 17 20 9 11 1012.3 - 0.0
30/12:00am 14.4 9.8 5.7 56 4.2 NW 19 24 10 13 1012.2 1011.8 0.0
 
Date/Time
WST
Temp
°C
App
Temp
°C
Dew
Point
Rel
Hum
%
Delta-T
°C
Wind Press
QNH
hPa
Press
MSL
hPa
Rain
since 9 am
mm
Dir
 
Spd
km/h
Gust
km/h
Spd
kts
Gust
kts
29/11:30pm 13.6 9.4 5.7 59 3.8 NW 17 19 9 10 1012.5 - 0.0
29/11:00pm 13.5 9.2 5.4 58 3.8 NNW 17 19 9 10 1012.6 - 0.0
29/10:30pm 13.7 9.5 5.6 58 3.8 NNW 17 19 9 10 1012.7 - 0.0
29/10:00pm 14.5 10.3 5.6 55 4.3 NNW 17 20 9 11 1012.9 - 0.0
29/09:30pm 14.5 10.3 5.6 55 4.3 NNW 17 20 9 11 1013.1 - 0.0
29/09:00pm 14.2 9.5 5.0 54 4.3 NNW 19 19 10 10 1013.2 1012.8 0.0
29/08:30pm 14.5 9.7 4.8 52 4.6 NNW 19 19 10 10 1013.3 - 0.0
29/08:00pm 14.9 10.1 4.9 51 4.7 NNW 19 20 10 11 1013.2 - 0.0
29/07:30pm 15.3 10.5 4.7 49 5.0 NNW 19 20 10 11 1013.1 - 0.0
29/07:00pm 15.8 11.4 4.8 48 5.2 NNW 17 19 9 10 1013.0 - 0.0
29/06:30pm 16.5 12.1 4.5 45 5.7 NNW 17 17 9 9 1012.8 - 0.0
29/06:00pm 17.8 13.8 4.7 42 6.3 NNW 15 17 8 9 1012.5 1012.1 0.0
29/05:30pm 19.8 15.8 4.7 37 7.4 NW 15 19 8 10 1012.2 - 0.0
29/05:00pm 21.6 16.1 4.2 32 8.5 WNW 22 30 12 16 1012.0 - 0.0
29/04:30pm 23.0 16.8 4.5 30 9.2 WNW 26 35 14 19 1011.8 - 0.0
29/04:00pm 23.9 17.4 4.8 29 9.6 WNW 28 35 15 19 1011.9 - 0.0
29/03:30pm 24.2 17.4 5.1 29 9.7 WNW 30 44 16 24 1012.0 - 0.0
29/03:00pm 24.7 17.9 5.0 28 10.0 NW 30 37 16 20 1012.0 1011.6 0.0
29/02:30pm 24.3 17.1 5.1 29 9.7 WNW 32 39 17 21 1012.0 - 0.0
29/02:00pm 24.3 17.2 5.6 30 9.6 NW 32 41 17 22 1012.0 - 0.0
29/01:30pm 24.1 17.1 5.9 31 9.3 WNW 32 39 17 21 1012.0 - 0.0
29/01:00pm 23.6 17.1 6.4 33 8.9 NW 30 46 16 25 1012.2 - 0.0
29/12:30pm 23.9 17.4 6.7 33 9.0 WNW 30 41 16 22 1012.6 - 0.0
29/12:00pm 23.4 18.1 6.7 34 8.7 WNW 24 37 13 20 1012.9 1012.5 0.0
29/11:30am 22.5 17.3 7.1 37 8.0 WNW 24 35 13 19 1013.5 - 0.0
29/11:00am 22.0 18.0 8.2 41 7.3 WNW 19 28 10 15 1014.1 - 0.0
29/10:30am 21.5 18.1 9.1 45 6.6 WNW 17 26 9 14 1014.7 - 0.0
29/10:00am 20.5 17.2 9.4 49 6.0 W 17 26 9 14 1015.2 - 0.0
29/09:30am 19.3 15.9 9.2 52 5.4 W 17 22 9 12 1015.5 - 0.0
29/09:00am 18.4 14.8 10.0 58 4.5 WSW 19 26 10 14 1015.6 1015.2 0.0
29/08:30am 17.3 14.8 9.7 61 4.0 WNW 13 17 7 9 1015.8 - 0.0
29/08:00am 15.1 11.7 5.9 54 4.4 W 13 17 7 9 1015.7 - 0.0
29/07:30am 13.6 10.0 5.0 56 4.0 WNW 13 15 7 8 1015.5 - 0.0
29/07:00am 12.0 7.8 4.0 58 3.6 WNW 15 19 8 10 1015.2 - 0.0
29/06:30am 10.2 6.0 3.7 64 2.9 WNW 15 17 8 9 1014.9 - 0.0
29/06:00am 8.9 4.2 3.3 68 2.4 W 17 19 9 10 1014.6 1014.2 0.0
29/05:30am 8.9 4.2 3.1 67 2.5 W 17 17 9 9 1014.3 - 0.0
29/05:00am 9.3 5.0 3.3 66 2.6 W 15 17 8 9 1014.0 - 0.0
29/04:30am 9.7 5.5 3.7 66 2.6 W 15 17 8 9 1013.7 - 0.0
29/04:00am 9.2 5.3 3.4 67 2.5 W 13 13 7 7 1013.4 - 0.0
29/03:30am 10.1 5.9 3.8 65 2.8 W 15 17 8 9 1013.0 - 0.0
29/03:00am 10.3 6.1 3.8 64 2.9 NW 15 17 8 9 1012.8 1012.4 0.0
29/02:30am 11.0 6.6 4.5 64 3.0 WNW 17 20 9 11 1012.7 - 0.0
29/02:00am 11.4 7.0 4.8 64 3.0 WNW 17 19 9 10 1012.6 - 0.0
29/01:30am 11.6 7.4 5.5 66 2.8 WNW 17 19 9 10 1012.8 - 0.0
29/01:00am 12.0 7.8 5.6 65 3.0 WNW 17 19 9 10 1012.8 - 0.0
29/12:30am 12.6 8.4 5.8 63 3.2 WNW 17 19 9 10 1012.8 - 0.0
29/12:00am 13.5 9.4 6.1 61 3.5 W 17 19 9 10 1013.0 1012.6 0.0
 
Date/Time
WST
Temp
°C
App
Temp
°C
Dew
Point
Rel
Hum
%
Delta-T
°C
Wind Press
QNH
hPa
Press
MSL
hPa
Rain
since 9 am
mm
Dir
 
Spd
km/h
Gust
km/h
Spd
kts
Gust
kts
28/11:30pm 14.1 9.7 6.5 60 3.7 W 19 20 10 11 1013.1 - 0.0
28/11:00pm 13.9 9.9 6.5 61 3.6 W 17 19 9 10 1013.2 - 0.0
28/10:30pm 14.5 10.5 6.8 60 3.8 W 17 19 9 10 1013.2 - 0.0
28/10:00pm 15.6 12.1 7.1 57 4.2 W 15 19 8 10 1013.3 - 0.0
28/09:30pm 16.3 12.2 7.8 57 4.3 W 19 22 10 12 1013.4 - 0.0
28/09:00pm 16.7 13.0 8.1 57 4.4 W 17 19 9 10 1013.2 1012.8 0.0
28/08:30pm 17.4 13.8 8.5 56 4.6 W 17 19 9 10 1012.9 - 0.0
28/08:00pm 17.5 14.4 8.9 57 4.5 W 15 17 8 9 1012.5 - 0.0
28/07:30pm 17.9 14.9 9.3 57 4.5 W 15 15 8 8 1012.1 - 0.0
28/07:00pm 18.6 16.0 9.4 55 4.9 WNW 13 15 7 8 1011.9 - 0.0
28/06:30pm 19.6 16.7 9.8 53 5.3 W 15 17 8 9 1011.6 - 0.0
28/06:00pm 20.4 17.9 9.6 50 5.8 WNW 13 15 7 8 1011.5 1011.2 0.0
28/05:30pm 21.3 18.4 9.5 47 6.4 WNW 15 19 8 10 1011.4 - 0.0
28/05:00pm 22.2 18.6 9.7 45 6.8 WNW 19 26 10 14 1011.1 - 0.0
28/04:30pm 22.9 19.1 9.7 43 7.2 NW 20 28 11 15 1011.0 - 0.0
28/04:00pm 23.3 18.7 9.7 42 7.4 NW 24 30 13 16 1010.6 - 0.0
28/03:30pm 23.8 20.0 9.8 41 7.7 NW 20 26 11 14 1010.5 - 0.0
28/03:00pm 23.9 20.1 9.9 41 7.7 NNW 20 32 11 17 1010.5 1010.1 0.0
28/02:30pm 24.0 20.4 9.9 41 7.8 N 19 30 10 16 1010.4 - 0.0
28/02:00pm 24.6 21.2 10.5 41 7.9 NNW 19 28 10 15 1010.7 - 0.0
28/01:30pm 24.2 22.2 10.1 41 7.8 N 11 20 6 11 1010.6 - 0.0
28/01:00pm 23.9 21.3 10.6 43 7.4 NNW 15 26 8 14 1010.9 - 0.0
28/12:30pm 24.1 22.3 10.7 43 7.5 N 11 17 6 9 1011.8 - 0.0
28/12:00pm 23.8 21.6 10.8 44 7.3 NNE 13 22 7 12 1012.3 1011.9 0.0
28/11:30am 23.3 21.2 11.0 46 6.9 NNE 13 20 7 11 1012.5 - 0.0
28/11:00am 22.2 19.1 10.4 47 6.5 NNE 17 26 9 14 1013.3 - 0.0
28/10:30am 22.3 19.4 9.8 45 6.8 NE 15 22 8 12 1013.8 - 0.0
28/10:00am 22.1 19.9 10.9 49 6.2 ENE 13 20 7 11 1014.5 - 0.0
28/09:30am 20.9 18.3 10.7 52 5.6 E 15 24 8 13 1015.0 - 0.0
28/09:00am 19.7 17.0 11.7 60 4.5 E 17 22 9 12 1015.1 1014.7 0.0
28/08:30am 18.7 16.1 12.0 65 3.7 E 17 20 9 11 1015.4 - 0.0
28/08:00am 17.2 15.1 12.3 73 2.7 E 15 19 8 10 1015.3 - 0.0
28/07:30am 15.4 14.0 12.2 81 1.8 E 11 15 6 8 1015.3 - 0.0
28/07:00am 12.7 11.6 10.8 88 1.0 E 7 9 4 5 1015.3 - 0.0
28/06:30am 10.4 8.6 9.5 94 0.5 SE 9 11 5 6 1015.0 - 0.0
28/06:00am 9.2 7.1 8.3 94 0.4 SE 9 11 5 6 1015.1 1014.7 0.0
28/05:30am 8.7 6.8 7.5 92 0.6 E 7 9 4 5 1015.2 - 0.0
28/05:00am 9.5 7.0 8.4 93 0.5 SSE 11 13 6 7 1015.1 - 0.0
28/04:30am 9.5 6.7 8.6 94 0.4 S 13 15 7 8 1015.1 - 0.0
28/04:00am 9.4 6.9 8.0 91 0.7 SSW 11 15 6 8 1015.1 - 0.0
28/03:30am 9.9 7.5 8.5 91 0.7 SSW 11 13 6 7 1015.1 - 0.0
28/03:00am 10.7 9.8 9.3 91 0.7 S 4 7 2 4 1015.0 1014.6 0.0
28/02:30am 10.7 9.2 9.3 91 0.7 ESE 7 7 4 4 1015.1 - 0.0
28/02:00am 10.5 8.5 8.8 89 0.8 ENE 9 11 5 6 1015.3 - 0.0
28/01:30am 11.0 9.1 8.9 87 1.0 ESE 9 11 5 6 1015.5 - 0.0
28/01:00am 12.3 10.4 10.5 89 0.9 SSE 11 13 6 7 1015.6 - 0.0
28/12:30am 12.4 10.9 10.5 88 1.0 SSE 9 11 5 6 1015.7 - 0.0
28/12:00am 12.6 10.6 10.3 86 1.2 SSE 11 15 6 8 1015.6 1015.2 0.0
 
Date/Time
WST
Temp
°C
App
Temp
°C
Dew
Point
Rel
Hum
%
Delta-T
°C
Wind Press
QNH
hPa
Press
MSL
hPa
Rain
since 9 am
mm
Dir
 
Spd
km/h
Gust
km/h
Spd
kts
Gust
kts
27/11:30pm 13.5 11.7 10.9 84 1.4 SSE 11 15 6 8 1015.9 - 0.0
27/11:00pm 14.2 12.1 11.2 82 1.6 SSE 13 17 7 9 1016.1 - 0.0
27/10:30pm 14.7 13.1 11.7 82 1.6 SE 11 15 6 8 1016.4 - 0.0
27/10:00pm 14.8 12.8 11.6 81 1.7 SE 13 17 7 9 1016.7 - 0.0
27/09:30pm 15.1 13.1 11.5 79 1.9 SSE 13 19 7 10 1016.7 - 0.0
27/09:00pm 15.4 12.6 11.4 77 2.2 SSE 17 24 9 13 1016.8 1016.5 0.0
27/08:30pm 16.1 13.0 11.5 74 2.5 SSE 19 26 10 14 1016.5 - 0.0
27/08:00pm 17.1 12.5 11.2 68 3.2 SE 26 33 14 18 1016.5 - 0.0
27/07:30pm 19.2 14.9 3.4 35 7.5 SW 15 19 8 10 1016.3 - 0.0
27/07:00pm 19.5 15.4 4.4 37 7.3 SSW 15 19 8 10 1016.0 - 0.0
27/06:30pm 19.4 16.3 5.5 40 6.9 SSW 11 15 6 8 1015.8 - 0.0
27/06:00pm 20.2 17.5 5.4 38 7.3 WSW 9 11 5 6 1015.6 1015.2 0.0
27/05:30pm 21.0 17.5 5.4 36 7.8 W 13 17 7 9 1015.2 - 0.0
27/05:00pm 21.4 17.9 5.3 35 8.0 W 13 17 7 9 1014.8 - 0.0

Other Formats:

Comma delimited format used in spreadsheet applications
http://www.bom.gov.au/fwo/IDW60801/IDW60801.95646.axf

JavaScript Object Notation format (JSON) in row-major order
http://www.bom.gov.au/fwo/IDW60801/IDW60801.95646.json